Terminal Aerodrome Forecast
Issued by NWS

Home | Current Version | Previous Version | Text Only | Print | Product List | Glossary Off
Versions: 1 2 3 4 5 6 7 8 9 10 11 12 13 14 15 16 17

437
FTUS43 KBIS 272003 AAA
TAFDIK
TAF AMD
KDIK 272003Z 2720/2818 04011KT P6SM -RA SCT005 OVC014
      TEMPO 2720/2723 5SM -RA SCT015 OVC035
     FM272300 05010KT 5SM -SHRA BR FEW008 OVC080
     FM280500 05007KT 4SM -SNRA BR BKN060 OVC080=

USA.gov is the U.S. government's official web portal to all federal, state and local government web resources and services.